sensor_id;sensor_type;location;lat;lon;timestamp;P1;durP1;ratioP1;P2;durP2;ratioP2
8777;SDS011;4425;50.872;4.712;2024-02-14T00:02:25;3.27;;;3.07;;
8777;SDS011;4425;50.872;4.712;2024-02-14T00:04:54;3.50;;;3.20;;
8777;SDS011;4425;50.872;4.712;2024-02-14T00:07:21;3.67;;;3.23;;
8777;SDS011;4425;50.872;4.712;2024-02-14T00:09:48;3.40;;;3.10;;
8777;SDS011;4425;50.872;4.712;2024-02-14T00:12:15;3.60;;;3.30;;
8777;SDS011;4425;50.872;4.712;2024-02-14T00:14:42;3.30;;;3.03;;
8777;SDS011;4425;50.872;4.712;2024-02-14T00:17:09;3.60;;;3.30;;
8777;SDS011;4425;50.872;4.712;2024-02-14T00:19:37;4.30;;;3.00;;
8777;SDS011;4425;50.872;4.712;2024-02-14T00:22:06;2.93;;;2.73;;
8777;SDS011;4425;50.872;4.712;2024-02-14T00:24:33;3.37;;;3.03;;
8777;SDS011;4425;50.872;4.712;2024-02-14T00:27:01;3.30;;;3.00;;
8777;SDS011;4425;50.872;4.712;2024-02-14T00:29:28;4.10;;;3.10;;
8777;SDS011;4425;50.872;4.712;2024-02-14T00:31:55;4.07;;;2.63;;
8777;SDS011;4425;50.872;4.712;2024-02-14T00:34:22;3.50;;;3.00;;
8777;SDS011;4425;50.872;4.712;2024-02-14T00:36:49;3.37;;;3.17;;
8777;SDS011;4425;50.872;4.712;2024-02-14T00:39:17;3.40;;;3.20;;
8777;SDS011;4425;50.872;4.712;2024-02-14T00:41:46;3.87;;;3.13;;
8777;SDS011;4425;50.872;4.712;2024-02-14T00:44:13;3.60;;;3.30;;
8777;SDS011;4425;50.872;4.712;2024-02-14T00:46:41;3.27;;;3.07;;
8777;SDS011;4425;50.872;4.712;2024-02-14T00:49:09;3.20;;;3.00;;
8777;SDS011;4425;50.872;4.712;2024-02-14T00:51:36;3.60;;;3.00;;
8777;SDS011;4425;50.872;4.712;2024-02-14T00:54:06;3.10;;;2.70;;
8777;SDS011;4425;50.872;4.712;2024-02-14T00:56:35;4.37;;;3.07;;
8777;SDS011;4425;50.872;4.712;2024-02-14T00:59:01;3.30;;;3.10;;
8777;SDS011;4425;50.872;4.712;2024-02-14T01:01:28;4.00;;;3.00;;
8777;SDS011;4425;50.872;4.712;2024-02-14T01:03:55;2.87;;;2.73;;
8777;SDS011;4425;50.872;4.712;2024-02-14T01:06:22;5.30;;;3.47;;
8777;SDS011;4425;50.872;4.712;2024-02-14T01:08:49;3.60;;;3.10;;
8777;SDS011;4425;50.872;4.712;2024-02-14T01:11:16;3.23;;;2.93;;
8777;SDS011;4425;50.872;4.712;2024-02-14T01:13:45;4.23;;;3.10;;
8777;SDS011;4425;50.872;4.712;2024-02-14T01:16:11;4.10;;;2.90;;
8777;SDS011;4425;50.872;4.712;2024-02-14T01:18:39;3.17;;;2.83;;
8777;SDS011;4425;50.872;4.712;2024-02-14T01:21:10;3.10;;;2.90;;
8777;SDS011;4425;50.872;4.712;2024-02-14T01:23:37;3.47;;;3.17;;
8777;SDS011;4425;50.872;4.712;2024-02-14T01:26:04;4.13;;;3.33;;
8777;SDS011;4425;50.872;4.712;2024-02-14T01:28:31;3.87;;;3.20;;
8777;SDS011;4425;50.872;4.712;2024-02-14T01:31:00;3.33;;;3.03;;
8777;SDS011;4425;50.872;4.712;2024-02-14T01:33:27;3.93;;;3.53;;
8777;SDS011;4425;50.872;4.712;2024-02-14T01:35:56;3.73;;;3.40;;
8777;SDS011;4425;50.872;4.712;2024-02-14T01:38:23;3.37;;;3.13;;
8777;SDS011;4425;50.872;4.712;2024-02-14T01:41:00;3.70;;;3.40;;
8777;SDS011;4425;50.872;4.712;2024-02-14T01:43:28;4.17;;;3.30;;
8777;SDS011;4425;50.872;4.712;2024-02-14T01:45:55;6.67;;;3.30;;
8777;SDS011;4425;50.872;4.712;2024-02-14T01:48:29;5.33;;;3.40;;
8777;SDS011;4425;50.872;4.712;2024-02-14T01:50:57;4.33;;;3.53;;
8777;SDS011;4425;50.872;4.712;2024-02-14T01:53:25;4.00;;;3.50;;
8777;SDS011;4425;50.872;4.712;2024-02-14T01:55:55;6.33;;;3.40;;
8777;SDS011;4425;50.872;4.712;2024-02-14T01:58:22;5.67;;;3.50;;
8777;SDS011;4425;50.872;4.712;2024-02-14T02:00:51;4.10;;;3.70;;
8777;SDS011;4425;50.872;4.712;2024-02-14T02:03:22;6.07;;;3.70;;
8777;SDS011;4425;50.872;4.712;2024-02-14T02:05:51;4.00;;;3.53;;
8777;SDS011;4425;50.872;4.712;2024-02-14T02:08:19;3.17;;;2.97;;
8777;SDS011;4425;50.872;4.712;2024-02-14T02:10:46;4.83;;;3.60;;
8777;SDS011;4425;50.872;4.712;2024-02-14T02:13:13;3.87;;;3.43;;
8777;SDS011;4425;50.872;4.712;2024-02-14T02:15:41;4.20;;;3.80;;
8777;SDS011;4425;50.872;4.712;2024-02-14T02:18:13;3.80;;;3.50;;
8777;SDS011;4425;50.872;4.712;2024-02-14T02:20:41;4.00;;;3.70;;
8777;SDS011;4425;50.872;4.712;2024-02-14T02:23:10;4.90;;;3.60;;
8777;SDS011;4425;50.872;4.712;2024-02-14T02:25:39;4.47;;;3.80;;
8777;SDS011;4425;50.872;4.712;2024-02-14T02:28:07;3.93;;;3.47;;
8777;SDS011;4425;50.872;4.712;2024-02-14T02:30:34;3.90;;;3.60;;
8777;SDS011;4425;50.872;4.712;2024-02-14T02:33:02;4.23;;;3.87;;
8777;SDS011;4425;50.872;4.712;2024-02-14T02:35:29;4.30;;;3.83;;
8777;SDS011;4425;50.872;4.712;2024-02-14T02:37:56;4.30;;;3.70;;
8777;SDS011;4425;50.872;4.712;2024-02-14T02:40:24;4.30;;;4.07;;
8777;SDS011;4425;50.872;4.712;2024-02-14T02:42:52;5.03;;;3.90;;
8777;SDS011;4425;50.872;4.712;2024-02-14T02:45:19;4.13;;;3.40;;
8777;SDS011;4425;50.872;4.712;2024-02-14T02:47:46;4.03;;;3.73;;
8777;SDS011;4425;50.872;4.712;2024-02-14T02:50:15;8.57;;;5.07;;
8777;SDS011;4425;50.872;4.712;2024-02-14T02:52:42;7.43;;;4.10;;
8777;SDS011;4425;50.872;4.712;2024-02-14T02:55:08;4.70;;;3.83;;
8777;SDS011;4425;50.872;4.712;2024-02-14T02:57:37;3.83;;;3.53;;
8777;SDS011;4425;50.872;4.712;2024-02-14T03:00:06;3.87;;;3.67;;
8777;SDS011;4425;50.872;4.712;2024-02-14T03:02:34;4.23;;;3.80;;
8777;SDS011;4425;50.872;4.712;2024-02-14T03:05:03;4.57;;;3.87;;
8777;SDS011;4425;50.872;4.712;2024-02-14T03:07:35;6.70;;;4.10;;
8777;SDS011;4425;50.872;4.712;2024-02-14T03:10:02;4.03;;;3.63;;
8777;SDS011;4425;50.872;4.712;2024-02-14T03:12:29;4.60;;;4.20;;
8777;SDS011;4425;50.872;4.712;2024-02-14T03:15:04;4.97;;;4.20;;
8777;SDS011;4425;50.872;4.712;2024-02-14T03:17:35;5.37;;;4.83;;
8777;SDS011;4425;50.872;4.712;2024-02-14T03:20:02;4.93;;;4.27;;
8777;SDS011;4425;50.872;4.712;2024-02-14T03:22:35;5.47;;;4.60;;
8777;SDS011;4425;50.872;4.712;2024-02-14T03:25:03;5.07;;;4.57;;
8777;SDS011;4425;50.872;4.712;2024-02-14T03:27:32;5.20;;;4.70;;
8777;SDS011;4425;50.872;4.712;2024-02-14T03:30:00;6.97;;;4.50;;
8777;SDS011;4425;50.872;4.712;2024-02-14T03:32:29;4.70;;;4.30;;
8777;SDS011;4425;50.872;4.712;2024-02-14T03:34:56;6.53;;;5.27;;
8777;SDS011;4425;50.872;4.712;2024-02-14T03:37:23;6.30;;;4.70;;
8777;SDS011;4425;50.872;4.712;2024-02-14T03:39:51;8.00;;;5.10;;
8777;SDS011;4425;50.872;4.712;2024-02-14T03:42:20;7.10;;;4.40;;
8777;SDS011;4425;50.872;4.712;2024-02-14T03:44:47;6.13;;;4.73;;
8777;SDS011;4425;50.872;4.712;2024-02-14T03:47:13;6.77;;;5.00;;
8777;SDS011;4425;50.872;4.712;2024-02-14T03:49:42;6.87;;;5.27;;
8777;SDS011;4425;50.872;4.712;2024-02-14T03:52:09;6.13;;;5.10;;
8777;SDS011;4425;50.872;4.712;2024-02-14T03:54:36;6.93;;;4.57;;
8777;SDS011;4425;50.872;4.712;2024-02-14T03:57:03;8.60;;;4.93;;
8777;SDS011;4425;50.872;4.712;2024-02-14T03:59:35;5.80;;;5.17;;
8777;SDS011;4425;50.872;4.712;2024-02-14T04:02:03;5.90;;;4.97;;
8777;SDS011;4425;50.872;4.712;2024-02-14T04:04:34;6.03;;;4.63;;
8777;SDS011;4425;50.872;4.712;2024-02-14T04:07:04;9.37;;;4.87;;
8777;SDS011;4425;50.872;4.712;2024-02-14T04:09:32;5.53;;;4.90;;
8777;SDS011;4425;50.872;4.712;2024-02-14T04:12:00;6.93;;;4.97;;
8777;SDS011;4425;50.872;4.712;2024-02-14T04:14:27;10.00;;;5.27;;
8777;SDS011;4425;50.872;4.712;2024-02-14T04:16:54;5.43;;;4.93;;
8777;SDS011;4425;50.872;4.712;2024-02-14T04:19:21;9.73;;;6.03;;
8777;SDS011;4425;50.872;4.712;2024-02-14T04:21:52;6.47;;;5.47;;
8777;SDS011;4425;50.872;4.712;2024-02-14T04:24:28;7.97;;;5.50;;
8777;SDS011;4425;50.872;4.712;2024-02-14T04:26:55;7.70;;;5.97;;
8777;SDS011;4425;50.872;4.712;2024-02-14T04:29:23;5.57;;;5.07;;
8777;SDS011;4425;50.872;4.712;2024-02-14T04:31:50;9.20;;;5.70;;
8777;SDS011;4425;50.872;4.712;2024-02-14T04:34:17;6.53;;;5.30;;
8777;SDS011;4425;50.872;4.712;2024-02-14T04:36:44;6.43;;;5.30;;
8777;SDS011;4425;50.872;4.712;2024-02-14T04:39:11;5.70;;;5.13;;
8777;SDS011;4425;50.872;4.712;2024-02-14T04:41:40;5.73;;;5.13;;
8777;SDS011;4425;50.872;4.712;2024-02-14T04:44:07;7.33;;;5.33;;
8777;SDS011;4425;50.872;4.712;2024-02-14T04:46:33;9.77;;;5.40;;
8777;SDS011;4425;50.872;4.712;2024-02-14T04:49:01;6.33;;;5.40;;
8777;SDS011;4425;50.872;4.712;2024-02-14T04:51:28;6.47;;;5.40;;
8777;SDS011;4425;50.872;4.712;2024-02-14T04:53:56;8.43;;;5.70;;
8777;SDS011;4425;50.872;4.712;2024-02-14T04:56:23;8.03;;;6.20;;
8777;SDS011;4425;50.872;4.712;2024-02-14T04:58:57;7.17;;;5.53;;
8777;SDS011;4425;50.872;4.712;2024-02-14T05:01:24;6.27;;;5.67;;
8777;SDS011;4425;50.872;4.712;2024-02-14T05:03:51;7.73;;;5.83;;
8777;SDS011;4425;50.872;4.712;2024-02-14T05:06:18;6.20;;;5.03;;
8777;SDS011;4425;50.872;4.712;2024-02-14T05:08:46;7.67;;;6.07;;
8777;SDS011;4425;50.872;4.712;2024-02-14T05:11:13;7.90;;;6.00;;
8777;SDS011;4425;50.872;4.712;2024-02-14T05:13:40;6.57;;;5.60;;
8777;SDS011;4425;50.872;4.712;2024-02-14T05:16:10;8.07;;;5.97;;
8777;SDS011;4425;50.872;4.712;2024-02-14T05:18:37;10.10;;;6.40;;
8777;SDS011;4425;50.872;4.712;2024-02-14T05:21:05;7.17;;;6.10;;
8777;SDS011;4425;50.872;4.712;2024-02-14T05:23:32;8.03;;;5.93;;
8777;SDS011;4425;50.872;4.712;2024-02-14T05:25:59;8.77;;;6.83;;
8777;SDS011;4425;50.872;4.712;2024-02-14T05:28:27;8.70;;;6.53;;
8777;SDS011;4425;50.872;4.712;2024-02-14T05:30:54;11.57;;;7.10;;
8777;SDS011;4425;50.872;4.712;2024-02-14T05:33:23;6.67;;;5.83;;
8777;SDS011;4425;50.872;4.712;2024-02-14T05:35:50;9.87;;;6.43;;
8777;SDS011;4425;50.872;4.712;2024-02-14T05:38:20;7.47;;;6.77;;
8777;SDS011;4425;50.872;4.712;2024-02-14T05:40:47;8.73;;;7.00;;
8777;SDS011;4425;50.872;4.712;2024-02-14T05:43:14;9.53;;;7.07;;
8777;SDS011;4425;50.872;4.712;2024-02-14T05:45:43;12.20;;;6.57;;
8777;SDS011;4425;50.872;4.712;2024-02-14T05:48:10;9.47;;;7.20;;
8777;SDS011;4425;50.872;4.712;2024-02-14T05:50:41;7.77;;;6.47;;
8777;SDS011;4425;50.872;4.712;2024-02-14T05:53:08;9.67;;;7.13;;
8777;SDS011;4425;50.872;4.712;2024-02-14T05:55:35;10.07;;;7.33;;
8777;SDS011;4425;50.872;4.712;2024-02-14T05:58:02;8.37;;;6.83;;
8777;SDS011;4425;50.872;4.712;2024-02-14T06:00:29;10.17;;;7.20;;
8777;SDS011;4425;50.872;4.712;2024-02-14T06:02:56;9.83;;;6.90;;
8777;SDS011;4425;50.872;4.712;2024-02-14T06:05:25;9.87;;;7.40;;
8777;SDS011;4425;50.872;4.712;2024-02-14T06:07:53;7.57;;;6.80;;
8777;SDS011;4425;50.872;4.712;2024-02-14T06:10:20;9.07;;;7.13;;
8777;SDS011;4425;50.872;4.712;2024-02-14T06:12:47;9.23;;;6.90;;
8777;SDS011;4425;50.872;4.712;2024-02-14T06:15:14;10.03;;;7.37;;
8777;SDS011;4425;50.872;4.712;2024-02-14T06:17:41;9.40;;;7.20;;
8777;SDS011;4425;50.872;4.712;2024-02-14T06:20:09;9.27;;;7.20;;
8777;SDS011;4425;50.872;4.712;2024-02-14T06:22:37;10.93;;;7.10;;
8777;SDS011;4425;50.872;4.712;2024-02-14T06:25:06;10.57;;;7.53;;
8777;SDS011;4425;50.872;4.712;2024-02-14T06:27:33;7.60;;;6.90;;
8777;SDS011;4425;50.872;4.712;2024-02-14T06:30:01;8.37;;;6.53;;
8777;SDS011;4425;50.872;4.712;2024-02-14T06:32:29;11.00;;;7.10;;
8777;SDS011;4425;50.872;4.712;2024-02-14T06:34:55;10.47;;;6.80;;
8777;SDS011;4425;50.872;4.712;2024-02-14T06:37:22;10.83;;;7.00;;
8777;SDS011;4425;50.872;4.712;2024-02-14T06:39:49;9.60;;;6.87;;
8777;SDS011;4425;50.872;4.712;2024-02-14T06:42:18;12.37;;;6.70;;
8777;SDS011;4425;50.872;4.712;2024-02-14T06:44:45;9.70;;;6.50;;
8777;SDS011;4425;50.872;4.712;2024-02-14T06:47:12;8.80;;;6.83;;
8777;SDS011;4425;50.872;4.712;2024-02-14T06:49:39;11.80;;;6.97;;
8777;SDS011;4425;50.872;4.712;2024-02-14T06:52:06;14.27;;;7.50;;
8777;SDS011;4425;50.872;4.712;2024-02-14T06:54:33;15.80;;;7.13;;
8777;SDS011;4425;50.872;4.712;2024-02-14T06:57:00;16.37;;;6.67;;
8777;SDS011;4425;50.872;4.712;2024-02-14T06:59:29;12.00;;;7.43;;
8777;SDS011;4425;50.872;4.712;2024-02-14T07:01:56;10.50;;;7.00;;
8777;SDS011;4425;50.872;4.712;2024-02-14T07:04:23;9.20;;;6.27;;
8777;SDS011;4425;50.872;4.712;2024-02-14T07:06:52;14.27;;;6.83;;
8777;SDS011;4425;50.872;4.712;2024-02-14T07:09:19;13.97;;;7.13;;
8777;SDS011;4425;50.872;4.712;2024-02-14T07:11:46;8.20;;;6.50;;
8777;SDS011;4425;50.872;4.712;2024-02-14T07:14:13;12.23;;;7.20;;
8777;SDS011;4425;50.872;4.712;2024-02-14T07:16:41;13.50;;;7.20;;
8777;SDS011;4425;50.872;4.712;2024-02-14T07:19:11;12.03;;;6.97;;
8777;SDS011;4425;50.872;4.712;2024-02-14T07:21:38;32.33;;;8.10;;
8777;SDS011;4425;50.872;4.712;2024-02-14T07:24:05;18.60;;;7.30;;
8777;SDS011;4425;50.872;4.712;2024-02-14T07:26:32;10.47;;;6.30;;
8777;SDS011;4425;50.872;4.712;2024-02-14T07:29:00;12.40;;;6.90;;
8777;SDS011;4425;50.872;4.712;2024-02-14T07:31:28;11.17;;;7.20;;
8777;SDS011;4425;50.872;4.712;2024-02-14T07:34:00;12.33;;;6.53;;
8777;SDS011;4425;50.872;4.712;2024-02-14T07:36:28;14.57;;;6.27;;
8777;SDS011;4425;50.872;4.712;2024-02-14T07:38:56;9.57;;;6.37;;
8777;SDS011;4425;50.872;4.712;2024-02-14T07:41:24;13.90;;;7.30;;
8777;SDS011;4425;50.872;4.712;2024-02-14T07:43:51;15.40;;;6.77;;
8777;SDS011;4425;50.872;4.712;2024-02-14T07:46:19;22.43;;;7.03;;
8777;SDS011;4425;50.872;4.712;2024-02-14T07:48:47;25.50;;;8.37;;
8777;SDS011;4425;50.872;4.712;2024-02-14T07:51:20;10.80;;;6.13;;
8777;SDS011;4425;50.872;4.712;2024-02-14T07:53:48;10.50;;;6.83;;
8777;SDS011;4425;50.872;4.712;2024-02-14T07:56:18;16.60;;;7.20;;
8777;SDS011;4425;50.872;4.712;2024-02-14T07:58:45;14.90;;;6.50;;
8777;SDS011;4425;50.872;4.712;2024-02-14T08:01:13;11.43;;;6.67;;
8777;SDS011;4425;50.872;4.712;2024-02-14T08:03:40;18.30;;;7.40;;
8777;SDS011;4425;50.872;4.712;2024-02-14T08:06:07;11.30;;;6.33;;
8777;SDS011;4425;50.872;4.712;2024-02-14T08:08:36;12.93;;;6.90;;
8777;SDS011;4425;50.872;4.712;2024-02-14T08:11:02;11.40;;;6.30;;
8777;SDS011;4425;50.872;4.712;2024-02-14T08:13:30;7.83;;;6.37;;
8777;SDS011;4425;50.872;4.712;2024-02-14T08:15:57;7.67;;;6.47;;
8777;SDS011;4425;50.872;4.712;2024-02-14T08:18:24;10.13;;;6.43;;
8777;SDS011;4425;50.872;4.712;2024-02-14T08:20:52;9.77;;;6.10;;
8777;SDS011;4425;50.872;4.712;2024-02-14T08:23:20;9.00;;;6.13;;
8777;SDS011;4425;50.872;4.712;2024-02-14T08:25:51;8.87;;;6.37;;
8777;SDS011;4425;50.872;4.712;2024-02-14T08:28:21;18.63;;;7.57;;
8777;SDS011;4425;50.872;4.712;2024-02-14T08:30:48;12.20;;;7.27;;
8777;SDS011;4425;50.872;4.712;2024-02-14T08:33:15;9.07;;;6.40;;
8777;SDS011;4425;50.872;4.712;2024-02-14T08:35:43;12.97;;;6.17;;
8777;SDS011;4425;50.872;4.712;2024-02-14T08:38:10;11.60;;;6.80;;
8777;SDS011;4425;50.872;4.712;2024-02-14T08:40:37;10.67;;;6.80;;
8777;SDS011;4425;50.872;4.712;2024-02-14T08:43:06;25.37;;;7.63;;
8777;SDS011;4425;50.872;4.712;2024-02-14T08:45:34;16.20;;;7.67;;
8777;SDS011;4425;50.872;4.712;2024-02-14T08:48:02;18.73;;;10.03;;
8777;SDS011;4425;50.872;4.712;2024-02-14T08:50:30;13.40;;;7.33;;
8777;SDS011;4425;50.872;4.712;2024-02-14T08:52:57;14.30;;;7.50;;
8777;SDS011;4425;50.872;4.712;2024-02-14T08:55:24;9.47;;;7.17;;
8777;SDS011;4425;50.872;4.712;2024-02-14T08:57:51;21.83;;;8.20;;
8777;SDS011;4425;50.872;4.712;2024-02-14T09:00:20;12.13;;;7.37;;
8777;SDS011;4425;50.872;4.712;2024-02-14T09:02:47;11.87;;;7.63;;
8777;SDS011;4425;50.872;4.712;2024-02-14T09:05:14;25.27;;;8.13;;
8777;SDS011;4425;50.872;4.712;2024-02-14T09:07:42;15.10;;;7.77;;
8777;SDS011;4425;50.872;4.712;2024-02-14T09:10:09;17.00;;;7.80;;
8777;SDS011;4425;50.872;4.712;2024-02-14T09:12:37;14.10;;;8.73;;
8777;SDS011;4425;50.872;4.712;2024-02-14T09:15:06;14.07;;;7.50;;
8777;SDS011;4425;50.872;4.712;2024-02-14T09:17:38;10.97;;;7.73;;
8777;SDS011;4425;50.872;4.712;2024-02-14T09:20:06;12.30;;;7.30;;
8777;SDS011;4425;50.872;4.712;2024-02-14T09:22:34;12.33;;;7.30;;
8777;SDS011;4425;50.872;4.712;2024-02-14T09:25:01;8.73;;;7.33;;
8777;SDS011;4425;50.872;4.712;2024-02-14T09:27:29;9.10;;;7.50;;
8777;SDS011;4425;50.872;4.712;2024-02-14T09:29:57;9.27;;;6.93;;
8777;SDS011;4425;50.872;4.712;2024-02-14T09:32:24;13.27;;;8.13;;
8777;SDS011;4425;50.872;4.712;2024-02-14T09:34:52;12.63;;;7.90;;
8777;SDS011;4425;50.872;4.712;2024-02-14T09:37:19;14.73;;;7.77;;
8777;SDS011;4425;50.872;4.712;2024-02-14T09:39:46;17.03;;;8.40;;
8777;SDS011;4425;50.872;4.712;2024-02-14T09:42:13;15.50;;;8.43;;
8777;SDS011;4425;50.872;4.712;2024-02-14T09:44:45;16.07;;;8.77;;
8777;SDS011;4425;50.872;4.712;2024-02-14T09:47:14;12.70;;;8.07;;
8777;SDS011;4425;50.872;4.712;2024-02-14T09:49:41;11.70;;;8.57;;
8777;SDS011;4425;50.872;4.712;2024-02-14T09:52:10;12.77;;;8.73;;
8777;SDS011;4425;50.872;4.712;2024-02-14T09:54:38;17.30;;;8.27;;
8777;SDS011;4425;50.872;4.712;2024-02-14T09:57:06;19.87;;;8.57;;
8777;SDS011;4425;50.872;4.712;2024-02-14T09:59:33;30.80;;;9.13;;
8777;SDS011;4425;50.872;4.712;2024-02-14T10:02:02;17.70;;;7.80;;
8777;SDS011;4425;50.872;4.712;2024-02-14T10:04:32;13.97;;;7.87;;
8777;SDS011;4425;50.872;4.712;2024-02-14T10:07:03;12.73;;;6.93;;
8777;SDS011;4425;50.872;4.712;2024-02-14T10:09:41;17.83;;;8.20;;
8777;SDS011;4425;50.872;4.712;2024-02-14T10:12:08;11.70;;;6.57;;
8777;SDS011;4425;50.872;4.712;2024-02-14T10:14:35;13.53;;;7.33;;
8777;SDS011;4425;50.872;4.712;2024-02-14T10:17:03;13.97;;;6.70;;
8777;SDS011;4425;50.872;4.712;2024-02-14T10:19:30;6.13;;;5.53;;
8777;SDS011;4425;50.872;4.712;2024-02-14T10:21:58;6.67;;;5.87;;
8777;SDS011;4425;50.872;4.712;2024-02-14T10:24:28;7.43;;;5.70;;
8777;SDS011;4425;50.872;4.712;2024-02-14T10:26:58;7.40;;;5.50;;
8777;SDS011;4425;50.872;4.712;2024-02-14T10:29:28;7.00;;;5.37;;
8777;SDS011;4425;50.872;4.712;2024-02-14T10:31:59;10.23;;;5.40;;
8777;SDS011;4425;50.872;4.712;2024-02-14T10:34:26;9.37;;;5.67;;
8777;SDS011;4425;50.872;4.712;2024-02-14T10:36:56;5.13;;;4.70;;
8777;SDS011;4425;50.872;4.712;2024-02-14T10:39:25;5.33;;;4.60;;
8777;SDS011;4425;50.872;4.712;2024-02-14T10:41:52;5.30;;;4.63;;
8777;SDS011;4425;50.872;4.712;2024-02-14T10:44:21;6.47;;;4.90;;
8777;SDS011;4425;50.872;4.712;2024-02-14T10:46:49;5.17;;;4.13;;
8777;SDS011;4425;50.872;4.712;2024-02-14T10:49:19;4.63;;;4.07;;
8777;SDS011;4425;50.872;4.712;2024-02-14T10:51:47;4.73;;;4.30;;
8777;SDS011;4425;50.872;4.712;2024-02-14T10:54:26;4.57;;;4.17;;
8777;SDS011;4425;50.872;4.712;2024-02-14T10:56:54;4.83;;;4.37;;
8777;SDS011;4425;50.872;4.712;2024-02-14T10:59:26;4.37;;;3.97;;
8777;SDS011;4425;50.872;4.712;2024-02-14T11:01:53;6.00;;;3.60;;
8777;SDS011;4425;50.872;4.712;2024-02-14T11:04:22;4.13;;;3.73;;
8777;SDS011;4425;50.872;4.712;2024-02-14T11:06:52;3.77;;;3.37;;
8777;SDS011;4425;50.872;4.712;2024-02-14T11:09:20;4.27;;;3.63;;
8777;SDS011;4425;50.872;4.712;2024-02-14T11:11:47;3.73;;;3.40;;
8777;SDS011;4425;50.872;4.712;2024-02-14T11:14:14;3.53;;;3.20;;
8777;SDS011;4425;50.872;4.712;2024-02-14T11:16:44;3.30;;;3.10;;
8777;SDS011;4425;50.872;4.712;2024-02-14T11:19:13;3.53;;;3.23;;
8777;SDS011;4425;50.872;4.712;2024-02-14T11:21:46;3.50;;;3.07;;
8777;SDS011;4425;50.872;4.712;2024-02-14T11:24:14;3.87;;;3.13;;
8777;SDS011;4425;50.872;4.712;2024-02-14T11:26:48;3.27;;;3.07;;
8777;SDS011;4425;50.872;4.712;2024-02-14T11:29:17;3.13;;;2.93;;
8777;SDS011;4425;50.872;4.712;2024-02-14T11:31:47;2.87;;;2.67;;
8777;SDS011;4425;50.872;4.712;2024-02-14T11:34:15;2.80;;;2.70;;
8777;SDS011;4425;50.872;4.712;2024-02-14T11:36:43;2.60;;;2.50;;
8777;SDS011;4425;50.872;4.712;2024-02-14T11:39:11;4.37;;;2.60;;
8777;SDS011;4425;50.872;4.712;2024-02-14T11:41:38;2.50;;;2.40;;
8777;SDS011;4425;50.872;4.712;2024-02-14T11:44:07;4.40;;;2.27;;
8777;SDS011;4425;50.872;4.712;2024-02-14T11:46:35;2.53;;;2.20;;
8777;SDS011;4425;50.872;4.712;2024-02-14T11:49:04;2.50;;;2.30;;
8777;SDS011;4425;50.872;4.712;2024-02-14T11:51:33;2.63;;;2.43;;
8777;SDS011;4425;50.872;4.712;2024-02-14T11:54:06;12.13;;;3.47;;
8777;SDS011;4425;50.872;4.712;2024-02-14T11:56:33;3.07;;;2.73;;
8777;SDS011;4425;50.872;4.712;2024-02-14T11:59:02;10.40;;;3.13;;
8777;SDS011;4425;50.872;4.712;2024-02-14T12:01:30;3.03;;;2.43;;
8777;SDS011;4425;50.872;4.712;2024-02-14T12:03:57;8.80;;;2.73;;
8777;SDS011;4425;50.872;4.712;2024-02-14T12:06:27;3.07;;;2.10;;
8777;SDS011;4425;50.872;4.712;2024-02-14T12:08:56;3.47;;;2.37;;
8777;SDS011;4425;50.872;4.712;2024-02-14T12:11:26;6.77;;;2.70;;
8777;SDS011;4425;50.872;4.712;2024-02-14T12:13:54;9.77;;;2.70;;
8777;SDS011;4425;50.872;4.712;2024-02-14T12:16:24;7.70;;;2.87;;
8777;SDS011;4425;50.872;4.712;2024-02-14T12:19:00;4.67;;;2.70;;
8777;SDS011;4425;50.872;4.712;2024-02-14T12:21:36;2.03;;;2.03;;
8777;SDS011;4425;50.872;4.712;2024-02-14T12:24:06;7.43;;;2.63;;
8777;SDS011;4425;50.872;4.712;2024-02-14T12:26:34;8.10;;;3.20;;
8777;SDS011;4425;50.872;4.712;2024-02-14T12:29:02;23.27;;;4.53;;
8777;SDS011;4425;50.872;4.712;2024-02-14T12:31:29;14.03;;;3.70;;
8777;SDS011;4425;50.872;4.712;2024-02-14T12:33:57;3.87;;;3.03;;
8777;SDS011;4425;50.872;4.712;2024-02-14T12:36:25;2.40;;;2.30;;
8777;SDS011;4425;50.872;4.712;2024-02-14T12:38:54;2.50;;;2.30;;
8777;SDS011;4425;50.872;4.712;2024-02-14T12:41:24;3.73;;;2.70;;
8777;SDS011;4425;50.872;4.712;2024-02-14T12:43:52;3.77;;;2.40;;
8777;SDS011;4425;50.872;4.712;2024-02-14T12:46:19;6.23;;;3.17;;
8777;SDS011;4425;50.872;4.712;2024-02-14T12:48:46;5.57;;;3.43;;
8777;SDS011;4425;50.872;4.712;2024-02-14T12:51:13;3.87;;;3.17;;
8777;SDS011;4425;50.872;4.712;2024-02-14T12:53:40;3.43;;;3.10;;
8777;SDS011;4425;50.872;4.712;2024-02-14T12:56:11;3.67;;;3.33;;
8777;SDS011;4425;50.872;4.712;2024-02-14T12:58:38;8.83;;;4.13;;
8777;SDS011;4425;50.872;4.712;2024-02-14T13:01:05;4.50;;;3.63;;
8777;SDS011;4425;50.872;4.712;2024-02-14T13:03:33;4.77;;;3.80;;
8777;SDS011;4425;50.872;4.712;2024-02-14T13:06:01;5.20;;;4.80;;
8777;SDS011;4425;50.872;4.712;2024-02-14T13:08:27;5.27;;;3.73;;
8777;SDS011;4425;50.872;4.712;2024-02-14T13:10:54;6.10;;;4.07;;
8777;SDS011;4425;50.872;4.712;2024-02-14T13:13:23;10.20;;;4.27;;
8777;SDS011;4425;50.872;4.712;2024-02-14T13:15:50;4.83;;;4.10;;
8777;SDS011;4425;50.872;4.712;2024-02-14T13:18:17;5.27;;;4.33;;
8777;SDS011;4425;50.872;4.712;2024-02-14T13:20:45;9.50;;;4.60;;
8777;SDS011;4425;50.872;4.712;2024-02-14T13:23:13;6.83;;;4.73;;
8777;SDS011;4425;50.872;4.712;2024-02-14T13:25:40;5.30;;;4.50;;
8777;SDS011;4425;50.872;4.712;2024-02-14T13:28:07;9.20;;;4.50;;
8777;SDS011;4425;50.872;4.712;2024-02-14T13:30:35;10.37;;;4.60;;
8777;SDS011;4425;50.872;4.712;2024-02-14T13:33:02;6.03;;;4.47;;
8777;SDS011;4425;50.872;4.712;2024-02-14T13:35:29;4.73;;;4.30;;
8777;SDS011;4425;50.872;4.712;2024-02-14T13:37:58;10.73;;;4.90;;
8777;SDS011;4425;50.872;4.712;2024-02-14T13:40:25;7.97;;;4.63;;
8777;SDS011;4425;50.872;4.712;2024-02-14T13:42:52;6.33;;;4.30;;
8777;SDS011;4425;50.872;4.712;2024-02-14T13:45:18;7.13;;;4.90;;
8777;SDS011;4425;50.872;4.712;2024-02-14T13:47:47;5.90;;;4.83;;
8777;SDS011;4425;50.872;4.712;2024-02-14T13:50:15;6.97;;;5.30;;
8777;SDS011;4425;50.872;4.712;2024-02-14T13:52:42;8.73;;;4.87;;
8777;SDS011;4425;50.872;4.712;2024-02-14T13:55:09;5.50;;;4.93;;
8777;SDS011;4425;50.872;4.712;2024-02-14T13:57:37;5.37;;;4.87;;
8777;SDS011;4425;50.872;4.712;2024-02-14T14:00:04;7.00;;;5.47;;
8777;SDS011;4425;50.872;4.712;2024-02-14T14:02:34;8.47;;;4.80;;
8777;SDS011;4425;50.872;4.712;2024-02-14T14:05:10;7.20;;;5.10;;
8777;SDS011;4425;50.872;4.712;2024-02-14T14:07:37;7.00;;;5.00;;
8777;SDS011;4425;50.872;4.712;2024-02-14T14:10:05;7.10;;;4.87;;
8777;SDS011;4425;50.872;4.712;2024-02-14T14:12:33;9.97;;;5.10;;
8777;SDS011;4425;50.872;4.712;2024-02-14T14:15:00;12.03;;;5.00;;
8777;SDS011;4425;50.872;4.712;2024-02-14T14:17:27;7.47;;;5.40;;
8777;SDS011;4425;50.872;4.712;2024-02-14T14:19:54;5.33;;;4.73;;
8777;SDS011;4425;50.872;4.712;2024-02-14T14:22:23;7.30;;;5.40;;
8777;SDS011;4425;50.872;4.712;2024-02-14T14:25:07;7.30;;;5.03;;
8777;SDS011;4425;50.872;4.712;2024-02-14T14:27:34;7.43;;;4.50;;
8777;SDS011;4425;50.872;4.712;2024-02-14T14:30:01;5.03;;;4.53;;
8777;SDS011;4425;50.872;4.712;2024-02-14T14:32:29;5.20;;;4.70;;
8777;SDS011;4425;50.872;4.712;2024-02-14T14:34:56;4.97;;;4.53;;
8777;SDS011;4425;50.872;4.712;2024-02-14T14:37:24;4.70;;;4.27;;
8777;SDS011;4425;50.872;4.712;2024-02-14T14:39:51;11.07;;;4.40;;
8777;SDS011;4425;50.872;4.712;2024-02-14T14:42:19;5.17;;;4.00;;
8777;SDS011;4425;50.872;4.712;2024-02-14T14:44:46;5.57;;;4.10;;
8777;SDS011;4425;50.872;4.712;2024-02-14T14:47:13;8.33;;;4.17;;
8777;SDS011;4425;50.872;4.712;2024-02-14T14:49:40;4.90;;;3.80;;
8777;SDS011;4425;50.872;4.712;2024-02-14T14:52:07;3.70;;;3.40;;
8777;SDS011;4425;50.872;4.712;2024-02-14T14:54:35;3.63;;;3.33;;
8777;SDS011;4425;50.872;4.712;2024-02-14T14:57:03;4.07;;;3.77;;
8777;SDS011;4425;50.872;4.712;2024-02-14T14:59:40;4.10;;;3.43;;
8777;SDS011;4425;50.872;4.712;2024-02-14T15:02:09;4.23;;;3.40;;
8777;SDS011;4425;50.872;4.712;2024-02-14T15:04:36;5.43;;;3.80;;
8777;SDS011;4425;50.872;4.712;2024-02-14T15:07:05;4.23;;;3.73;;
8777;SDS011;4425;50.872;4.712;2024-02-14T15:09:32;5.07;;;3.87;;
8777;SDS011;4425;50.872;4.712;2024-02-14T15:12:00;7.13;;;3.90;;
8777;SDS011;4425;50.872;4.712;2024-02-14T15:14:29;4.33;;;3.67;;
8777;SDS011;4425;50.872;4.712;2024-02-14T15:16:57;4.20;;;3.80;;
8777;SDS011;4425;50.872;4.712;2024-02-14T15:19:24;3.33;;;3.03;;